Weather at Strong Memorial Hospital Heliport

Public forecast

Using degrees Fahrenheit for public forecast. Weather courtesy of forecast.io.

Closest aviation weather report (METAR) to Strong Memorial Hospital Heliport

Closest report is Greater Rochester International Airport, 2.2 nm (4.0 km) W. Retrieved 2020/12/01 06:54 UTC (1 hour ago):

KROC 010654Z 29004KT 6SM -DZ BR SCT005 OVC013 04/04 A2942 RMK AO2 DZE0555B49 SLP970 P0000 T00390039

Closest aviation forecast (TAF) to Strong Memorial Hospital Heliport

Closest forecast is Greater Rochester International Airport, 2.2 nm (4.0 km) W. Retrieved 2020/12/01 06:15 UTC (2 hours ago):

TAF KROC 010613Z 0106/0206 33007KT 3SM -DZ BR OVC005 FM011100 22005KT 6SM BR VCSH OVC007 FM011200 22005KT 6SM BR VCSH OVC012 FM011900 22010G16KT P6SM VCSH OVC020 FM012200 23010G18KT 2SM BR VCSH BKN012